My Meet Scores
Izabela Kukulak, Flipstar Gymnastics Academy - MyMeetScores.com
Top100 | Top Teams | Upcoming Meets | Completed Meets | Latest | Add Scores | Help| Support | Bookmark and Share

Izabela Kukulak, Flipstar Gymnastics Academy
Personal Bests
LevelVault BarsBeamFloorAA
39.6009.450 9.3509.52537.775
49.5009.550 9.4509.52537.375
68.8758.250 9.1509.55035.475
Meet Scores
Date Meet Team Session Level Division Vault Bars Beam Floor AA
2021-01-21 King Arthur Invitational Flipstar Gymnastics Academy 1 6 SR 8.875 3 8.250 5 9.125 2 9.200 3 35.450 3
2020-12-04 Flipstar's Home for the Holidays Flipstar Gymnastics Academy 4 6 All 8.700 3 8.075 5 9.150 3 9.550 1 35.475 4
2020-03-06 Illinois Level 4 State Championships Flipstar Gymnastics Academy 6 4 Sr B 9.500 1T 8.650 18 9.175 10T 9.200 5 36.525 8
2020-02-21 Kinetic Classic Flipstar Gymnastics Academy 06 4 Older 9.325 3 9.250 29T 9.275 28 9.525 6 37.375 7T
2020-02-14 Big Classic Flipstar Gymnastics Academy 4B 4 Child E 9.300 1 9.200 12 9.200 25T 9.200 17T 36.900 4
2020-02-07 IGI Chicago Style Meet Flipstar Gymnastics Academy 121 4 C 9.325 3 8.825 9 8.850 7 9.525 1T 36.525 4
2020-01-24 Sand Dollar Invitational 2020 Flipstar Gymnastics Academy E02 4 Sr B 9.350 1T 9.000 7 8.850 6 8.625 7 35.825 5
2019-12-07 Home for the Holidays 2019 Flipstar Gymnastics Academy 4 4 Sr B 9.400 1 9.550 4 9.000 3T 9.300 1T 37.250 1
2019-11-08 Illinois Judges Cup Flipstar Gymnastics Academy G5 4 All Ages 9.225 1 9.300 7T 9.450 3T 9.400 1T 37.375 1
2019-03-22 Illinois Gymnastics State Championships Flipstar Gymnastics Academy 4 4 JR A 9.200 6T 9.050 17 9.150 15 9.075 14 36.475 10T
2019-03-01 2019 MEGA Spring Invite Flipstar Gymnastics Academy All 4 All Ages 8.800 48T 8.575 71T 8.875 60T 9.050 43T 35.300 49T
2019-02-23 Kinetic Classic 2019 Flipstar Gymnastics Academy 1 4 Middle 8.425 22T 9.075 19 9.000 19 8.800 17T 35.300 19
2019-01-25 King Arthur Invitational Flipstar Gymnastics Academy 1 4 Sr A 8.600 3T 8.775 10 8.650 10T 9.050 8 35.075 8
2018-12-07 Horton Invite Flipstar Gymnastics Academy 1 4 Yth B 7.950 18 8.700 14 9.150 6T 8.725 15 34.525 12
2018-05-03 Illinois USA Gymnastics Level 3 State Championships Flipstar Gymnastics Academy 2 3 Jr C 9.600 5T 9.450 6T 9.300 6 9.425 3T 37.775 5
2018-02-23 Kinetic Classic Flipstar Gymnastics Academy 4 3 Middle 9.200 24T 9.350 17T 9.025 47T 9.400 26T 36.975 24
2018-02-16 Big Classic Flipstar Gymnastics Academy 6B 3 Child C 9.300 1 9.400 6 9.350 2 9.525 2 37.575 2T
2018-01-26 King Arthur Invitational Flipstar Gymnastics Academy 5 3 SR A 9.500 4T 9.200 2 8.750 11 9.025 7T 36.475 6
2018-01-19 Sand Dollar/ Whitlow Invitational Flipstar Gymnastics Academy E11 3 Jr B 9.450 2 8.950 3 8.700 7 8.800 5T 35.900 4
2017-12-08 Horton Invite At IWU Shirk Center Flipstar Gymnastics Academy All 3 Jr A 9.150 12T 9.150 6 8.800 9 8.825 6 35.925 6
2017-11-17 SCGA Classic Flipstar Gymnastics Academy 1 3 JrB 9.150 5 8.925 5 8.400 10 9.150 4 35.625 5
2017-11-10 Illinois NAWGJ Judges Cup 2017 Flipstar Gymnastics Academy S6 3 All Ages 9.175 27T 8.750 13 8.750 14T 9.150 12T 35.825 8
Get your scores on
a t-shirt, pin, or hoodie

www.lazysuits.com